PAY1192 MDSI-TIST
Flight info
| Callsign | PAY1192 |
|---|---|
| Flight time | N/A |
| Altitude | 23000 |
| Route | SIS DCT SIS |
| Aircraft | DH8D/M-SDE2E3FGRY/H |
Departure
| Time | 2026-04-21 20:18 |
|---|---|
| Airport | San Isidro Air Base (MDSI) |
Arrival
| Time | N/A |
|---|---|
| Airport | Cyril E. King Airport (TIST) |
| Time | Latitude | Longitude | Altitude | Speed | Heading |
|---|---|---|---|---|---|
| 2026-04-21 19:56 | 18.49786 | -69.76842 | 126 ft | 0 kts | 146° |
| 2026-04-21 20:11 | 18.49785 | -69.76842 | 126 ft | 1 kts | 146° |
| 2026-04-21 20:11 | 18.49769 | -69.76821 | 125 ft | 6 kts | 120° |
| 2026-04-21 20:12 | 18.49751 | -69.76756 | 124 ft | 11 kts | 97° |
| 2026-04-21 20:12 | 18.49794 | -69.76686 | 124 ft | 13 kts | 23° |
| 2026-04-21 20:12 | 18.49894 | -69.76646 | 125 ft | 16 kts | 21° |
| 2026-04-21 20:12 | 18.49985 | -69.76601 | 124 ft | 11 kts | 34° |
| 2026-04-21 20:13 | 18.50076 | -69.76567 | 122 ft | 15 kts | 19° |
| 2026-04-21 20:13 | 18.50194 | -69.76519 | 122 ft | 19 kts | 22° |
| 2026-04-21 20:13 | 18.50326 | -69.76466 | 122 ft | 21 kts | 19° |
| 2026-04-21 20:13 | 18.50476 | -69.76410 | 121 ft | 23 kts | 22° |
| 2026-04-21 20:14 | 18.50633 | -69.76347 | 121 ft | 24 kts | 21° |
| 2026-04-21 20:14 | 18.50784 | -69.76271 | 121 ft | 24 kts | 38° |
| 2026-04-21 20:14 | 18.50931 | -69.76159 | 119 ft | 26 kts | 36° |
| 2026-04-21 20:14 | 18.51086 | -69.76041 | 118 ft | 25 kts | 36° |
| 2026-04-21 20:15 | 18.51189 | -69.75927 | 117 ft | 20 kts | 69° |
| 2026-04-21 20:15 | 18.51221 | -69.75803 | 115 ft | 16 kts | 94° |
| 2026-04-21 20:15 | 18.51216 | -69.75770 | 114 ft | 0 kts | 109° |
| 2026-04-21 20:16 | 18.51216 | -69.75769 | 114 ft | 1 kts | 109° |
| 2026-04-21 20:17 | 18.51179 | -69.75747 | 115 ft | 6 kts | 192° |
| 2026-04-21 20:17 | 18.51115 | -69.75779 | 118 ft | 32 kts | 207° |
| 2026-04-21 20:17 | 18.50623 | -69.76033 | 120 ft | 118 kts | 205° |
| 2026-04-21 20:17 | 18.49725 | -69.76499 | 198 ft | 160 kts | 207° |
| 2026-04-21 20:18 | 18.48622 | -69.77088 | 350 ft | 198 kts | 204° |
| 2026-04-21 20:18 | 18.47200 | -69.77475 | 643 ft | 222 kts | 186° |
| 2026-04-21 20:18 | 18.45565 | -69.77552 | 968 ft | 242 kts | 183° |
| 2026-04-21 20:18 | 18.43788 | -69.77657 | 1276 ft | 258 kts | 183° |
| 2026-04-21 20:19 | 18.41940 | -69.77768 | 1778 ft | 262 kts | 183° |
| 2026-04-21 20:19 | 18.40056 | -69.77874 | 2237 ft | 265 kts | 183° |
| 2026-04-21 20:19 | 18.38272 | -69.78329 | 2687 ft | 266 kts | 208° |
| 2026-04-21 20:19 | 18.37115 | -69.79772 | 3397 ft | 259 kts | 246° |
| 2026-04-21 20:20 | 18.36987 | -69.81651 | 3861 ft | 265 kts | 283° |
| 2026-04-21 20:20 | 18.37968 | -69.83292 | 4315 ft | 270 kts | 319° |
| 2026-04-21 20:20 | 18.39712 | -69.84030 | 4748 ft | 270 kts | 356° |
| 2026-04-21 20:20 | 18.41509 | -69.83564 | 5182 ft | 266 kts | 33° |
| 2026-04-21 20:21 | 18.42786 | -69.82146 | 5631 ft | 263 kts | 56° |
| 2026-04-21 20:21 | 18.44056 | -69.80671 | 6146 ft | 270 kts | 44° |
| 2026-04-21 20:21 | 18.45678 | -69.79546 | 6645 ft | 271 kts | 31° |
| 2026-04-21 20:21 | 18.47422 | -69.78749 | 6928 ft | 272 kts | 19° |
| 2026-04-21 20:22 | 18.49229 | -69.78065 | 6968 ft | 273 kts | 28° |
| 2026-04-21 20:22 | 18.51021 | -69.74831 | 6872 ft | 267 kts | 89° |
| 2026-04-21 20:22 | 18.50964 | -69.72874 | 6991 ft | 264 kts | 91° |
| 2026-04-21 20:23 | 18.50930 | -69.70970 | 7195 ft | 258 kts | 90° |
| 2026-04-21 20:23 | 18.50878 | -69.69075 | 7350 ft | 256 kts | 90° |
| 2026-04-21 20:23 | 18.50853 | -69.67220 | 7705 ft | 250 kts | 91° |
| 2026-04-21 20:23 | 18.50841 | -69.65372 | 8102 ft | 252 kts | 88° |
| 2026-04-21 20:24 | 18.50819 | -69.63471 | 8568 ft | 256 kts | 87° |
| 2026-04-21 20:24 | 18.50796 | -69.61481 | 8965 ft | 273 kts | 90° |
| 2026-04-21 20:24 | 18.50803 | -69.59439 | 9315 ft | 285 kts | 92° |
| 2026-04-21 20:24 | 18.50812 | -69.57337 | 9758 ft | 286 kts | 88° |
| 2026-04-21 20:25 | 18.50806 | -69.55238 | 10173 ft | 291 kts | 89° |
| 2026-04-21 20:25 | 18.50814 | -69.53062 | 10525 ft | 298 kts | 89° |
| 2026-04-21 20:25 | 18.50823 | -69.50865 | 10881 ft | 302 kts | 89° |
| 2026-04-21 20:25 | 18.50832 | -69.48661 | 11227 ft | 304 kts | 89° |
| 2026-04-21 20:26 | 18.50855 | -69.46387 | 11610 ft | 303 kts | 90° |
| 2026-04-21 20:26 | 18.50839 | -69.44157 | 11970 ft | 298 kts | 92° |
| 2026-04-21 20:26 | 18.50845 | -69.41916 | 12317 ft | 295 kts | 88° |
| 2026-04-21 20:26 | 18.50856 | -69.39728 | 12636 ft | 295 kts | 89° |
| 2026-04-21 20:27 | 18.50862 | -69.37515 | 12869 ft | 299 kts | 90° |
| 2026-04-21 20:27 | 18.50857 | -69.35225 | 12995 ft | 303 kts | 87° |
| 2026-04-21 20:27 | 18.50867 | -69.32952 | 13184 ft | 307 kts | 90° |
| 2026-04-21 20:27 | 18.50887 | -69.30707 | 13247 ft | 310 kts | 88° |
| 2026-04-21 20:28 | 18.50890 | -69.28432 | 13399 ft | 311 kts | 88° |
| 2026-04-21 20:28 | 18.50893 | -69.26148 | 13535 ft | 311 kts | 89° |
| 2026-04-21 20:28 | 18.50905 | -69.23878 | 13910 ft | 306 kts | 89° |
| 2026-04-21 20:28 | 18.50905 | -69.21625 | 13997 ft | 314 kts | 89° |
| 2026-04-21 20:29 | 18.50912 | -69.19270 | 14170 ft | 320 kts | 89° |
| 2026-04-21 20:29 | 18.50911 | -69.16866 | 14536 ft | 319 kts | 89° |
| 2026-04-21 20:29 | 18.50914 | -69.14487 | 14803 ft | 319 kts | 87° |
| 2026-04-21 20:29 | 18.50916 | -69.12083 | 14882 ft | 320 kts | 88° |
| 2026-04-21 20:30 | 18.50929 | -69.09751 | 15174 ft | 315 kts | 91° |
| 2026-04-21 20:30 | 18.50939 | -69.07460 | 15143 ft | 317 kts | 89° |
| 2026-04-21 20:30 | 18.50931 | -69.05121 | 15223 ft | 316 kts | 89° |
| 2026-04-21 20:30 | 18.50932 | -69.02834 | 15282 ft | 316 kts | 89° |
| 2026-04-21 20:31 | 18.50935 | -69.00512 | 15338 ft | 316 kts | 89° |
| 2026-04-21 20:31 | 18.50938 | -68.98194 | 15392 ft | 315 kts | 89° |
| 2026-04-21 20:31 | 18.50941 | -68.95866 | 15463 ft | 316 kts | 89° |
| 2026-04-21 20:31 | 18.50943 | -68.93549 | 15614 ft | 317 kts | 89° |
| 2026-04-21 20:32 | 18.50945 | -68.91236 | 15803 ft | 318 kts | 89° |
| 2026-04-21 20:32 | 18.50947 | -68.88904 | 16031 ft | 319 kts | 89° |
| 2026-04-21 20:32 | 18.50948 | -68.86532 | 16272 ft | 320 kts | 89° |
| 2026-04-21 20:32 | 18.50949 | -68.84176 | 16503 ft | 322 kts | 89° |
| 2026-04-21 20:33 | 18.50950 | -68.81815 | 16728 ft | 323 kts | 89° |
| 2026-04-21 20:33 | 18.50950 | -68.79454 | 16954 ft | 324 kts | 89° |
| 2026-04-21 20:33 | 18.50950 | -68.77078 | 17183 ft | 325 kts | 89° |
| 2026-04-21 20:33 | 18.50950 | -68.74686 | 17407 ft | 327 kts | 89° |
| 2026-04-21 20:34 | 18.50951 | -68.72286 | 17591 ft | 328 kts | 89° |
| 2026-04-21 20:34 | 18.50953 | -68.69875 | 17815 ft | 327 kts | 90° |
| 2026-04-21 20:34 | 18.50954 | -68.67477 | 18006 ft | 327 kts | 89° |
| 2026-04-21 20:34 | 18.50942 | -68.65076 | 18175 ft | 329 kts | 90° |
| 2026-04-21 20:35 | 18.50937 | -68.62637 | 18307 ft | 333 kts | 89° |
| 2026-04-21 20:35 | 18.50936 | -68.60227 | 18525 ft | 333 kts | 90° |
| 2026-04-21 20:35 | 18.50933 | -68.57780 | 18757 ft | 331 kts | 89° |
| 2026-04-21 20:35 | 18.50930 | -68.55325 | 18843 ft | 336 kts | 89° |
| 2026-04-21 20:36 | 18.50923 | -68.52863 | 19057 ft | 334 kts | 91° |
| 2026-04-21 20:36 | 18.50925 | -68.50412 | 19143 ft | 336 kts | 88° |
| 2026-04-21 20:36 | 18.50919 | -68.47977 | 19389 ft | 333 kts | 86° |
| 2026-04-21 20:36 | 18.50928 | -68.45518 | 19630 ft | 334 kts | 91° |
| 2026-04-21 20:37 | 18.50919 | -68.43071 | 19669 ft | 337 kts | 91° |
| 2026-04-21 20:37 | 18.50917 | -68.40616 | 20026 ft | 331 kts | 89° |
| 2026-04-21 20:37 | 18.50913 | -68.38145 | 20066 ft | 339 kts | 90° |
| 2026-04-21 20:37 | 18.50907 | -68.35637 | 20222 ft | 341 kts | 90° |
| 2026-04-21 20:38 | 18.50896 | -68.33114 | 20334 ft | 344 kts | 89° |
| 2026-04-21 20:38 | 18.50888 | -68.30595 | 20412 ft | 348 kts | 90° |
| 2026-04-21 20:38 | 18.50881 | -68.28042 | 20538 ft | 349 kts | 90° |
| 2026-04-21 20:38 | 18.50874 | -68.25462 | 20639 ft | 351 kts | 90° |
| 2026-04-21 20:39 | 18.50866 | -68.22888 | 20773 ft | 352 kts | 90° |
| 2026-04-21 20:39 | 18.50858 | -68.20303 | 20900 ft | 353 kts | 90° |
| 2026-04-21 20:39 | 18.50850 | -68.17659 | 20998 ft | 355 kts | 90° |
| 2026-04-21 20:39 | 18.50842 | -68.14990 | 21026 ft | 359 kts | 90° |
| 2026-04-21 20:40 | 18.50833 | -68.12258 | 21032 ft | 362 kts | 90° |
| 2026-04-21 20:40 | 18.50826 | -68.09571 | 21028 ft | 362 kts | 90° |
| 2026-04-21 20:40 | 18.50818 | -68.06953 | 21026 ft | 362 kts | 90° |
| 2026-04-21 20:40 | 18.50810 | -68.04291 | 21025 ft | 362 kts | 90° |
| 2026-04-21 20:41 | 18.50800 | -68.01654 | 21025 ft | 362 kts | 90° |
| 2026-04-21 20:41 | 18.50790 | -67.98990 | 21022 ft | 362 kts | 90° |
| 2026-04-21 20:41 | 18.50780 | -67.96351 | 21020 ft | 361 kts | 90° |
| 2026-04-21 20:41 | 18.50768 | -67.93645 | 21020 ft | 361 kts | 90° |
| 2026-04-21 20:42 | 18.50756 | -67.90922 | 21020 ft | 360 kts | 90° |
| 2026-04-21 20:42 | 18.50744 | -67.88242 | 21021 ft | 360 kts | 90° |
| 2026-04-21 20:42 | 18.50730 | -67.85566 | 21021 ft | 360 kts | 90° |
| 2026-04-21 20:42 | 18.50718 | -67.82930 | 21022 ft | 360 kts | 90° |
| 2026-04-21 20:43 | 18.50704 | -67.80291 | 21023 ft | 360 kts | 90° |
| 2026-04-21 20:43 | 18.50690 | -67.77644 | 21023 ft | 360 kts | 90° |
| 2026-04-21 20:43 | 18.50676 | -67.75034 | 21024 ft | 360 kts | 90° |
| 2026-04-21 20:43 | 18.50661 | -67.72372 | 21025 ft | 360 kts | 90° |
| 2026-04-21 20:44 | 18.50646 | -67.69708 | 21025 ft | 360 kts | 90° |
| 2026-04-21 20:44 | 18.50630 | -67.67033 | 21025 ft | 360 kts | 90° |
| 2026-04-21 20:44 | 18.50614 | -67.64314 | 21024 ft | 360 kts | 90° |
| 2026-04-21 20:44 | 18.50597 | -67.61634 | 21022 ft | 360 kts | 90° |
| 2026-04-21 20:45 | 18.50581 | -67.59009 | 21021 ft | 360 kts | 90° |
| 2026-04-21 20:45 | 18.50564 | -67.56358 | 21020 ft | 360 kts | 90° |
| 2026-04-21 20:45 | 18.50547 | -67.53738 | 21020 ft | 360 kts | 90° |
| 2026-04-21 20:45 | 18.50529 | -67.51056 | 21020 ft | 360 kts | 90° |
| 2026-04-21 20:46 | 18.50511 | -67.48370 | 21021 ft | 360 kts | 90° |
| 2026-04-21 20:46 | 18.50492 | -67.45680 | 21026 ft | 360 kts | 90° |
| 2026-04-21 20:46 | 18.50473 | -67.43021 | 21028 ft | 360 kts | 90° |
| 2026-04-21 20:46 | 18.50467 | -67.42116 | 21028 ft | 360 kts | 90° |